Time;durP1;ratioP1;P1;durP2;ratioP2;P2;SDS_P1;SDS_P2;PMS_P1;PMS_P2;Temp;Humidity;BMP_temperature;BMP_pressure;BME280_temperature;BME280_humidity;BME280_pressure;Samples;Min_cycle;Max_cycle;Signal;HPM_P1;HPM_P2
2022/01/30 07:50:29;;;;;;;;;;;5.00;99.90;;;;;;5808580;22;19910;-81
2022/01/30 08:20:35;;;;;;;;;;;4.80;99.90;;;;;;4968623;28;19932;-82
2022/01/30 08:23:07;;;;;;;;;;;4.80;99.90;;;;;;4969166;28;19946;-81
2022/01/30 08:28:10;;;;;;;;;;;4.80;99.90;;;;;;5545201;23;19935;-80
2022/01/30 08:30:43;;;;;;;;;;;4.80;99.90;;;;;;4979927;28;19926;-80
2022/01/30 08:33:12;;;;;;;;;;;4.80;99.90;;;;;;4964002;28;19926;-80
2022/01/30 10:07:17;;;;;;;;;;;4.50;99.90;;;;;;5801517;22;21273;-80
2022/01/30 10:12:33;;;;;;;;;;;4.50;99.90;;;;;;4995050;28;19983;-81
2022/01/30 10:15:02;;;;;;;;;;;4.50;99.90;;;;;;5007882;28;19933;-80
2022/01/30 10:24:00;;;;;;;;;;;4.80;99.90;;;;;;5815850;23;19933;-81
2022/01/30 10:26:34;;;;;;;;;;;4.90;99.90;;;;;;4998424;28;19925;-81
2022/01/30 10:29:22;;;;;;;;;;;4.80;99.90;;;;;;4992928;28;19926;-81
2022/01/30 10:32:01;;;;;;;;;;;4.80;99.90;;;;;;4986820;28;19933;-81
2022/01/30 10:50:36;;;;;;;;;;;4.80;99.90;;;;;;5536918;23;20336;-96
2022/01/30 10:53:04;;;;;;;;;;;4.80;99.90;;;;;;4953037;29;19966;-96
2022/01/30 10:55:39;;;;;;;;;;;4.80;99.90;;;;;;4956689;29;19990;-96
2022/01/30 10:58:14;;;;;;;;;;;4.80;99.90;;;;;;4956278;29;19911;-96
2022/01/30 11:00:43;;;;;;;;;;;4.90;99.90;;;;;;5639985;23;19926;-81
2022/01/30 11:03:11;;;;;;;;;;;4.90;99.90;;;;;;4985258;28;19926;-80
2022/01/30 11:05:56;;;;;;;;;;;4.80;99.90;;;;;;4984752;28;19926;-81
2022/01/30 11:08:29;;;;;;;;;;;4.90;99.90;;;;;;4993215;28;19927;-81
2022/01/30 11:13:45;;;;;;;;;;;4.90;99.90;;;;;;5150563;23;19937;-81
2022/01/30 11:19:11;;;;;;;;;;;4.90;99.90;;;;;;4982721;28;19930;-81
2022/01/30 11:21:41;;;;;;;;;;;4.90;99.90;;;;;;4989698;28;19934;-81
2022/01/30 11:24:09;;;;;;;;;;;4.90;99.90;;;;;;4994557;28;19937;-82
2022/01/30 11:26:38;;;;;;;;;;;4.90;99.90;;;;;;4992015;28;19914;-81
2022/01/30 11:29:07;;;;;;;;;;;5.00;99.90;;;;;;4988040;28;19968;-81
2022/01/30 11:31:35;;;;;;;;;;;4.90;99.90;;;;;;4989328;28;19922;-81
2022/01/30 11:34:02;;;;;;;;;;;4.90;99.90;;;;;;4983300;28;20436;-80
2022/01/30 11:36:29;;;;;;;;;;;5.00;99.90;;;;;;4977848;28;19964;-81
2022/01/30 11:38:58;;;;;;;;;;;5.00;99.90;;;;;;4980697;28;19926;-80
2022/01/30 11:41:26;;;;;;;;;;;5.00;99.90;;;;;;4986338;28;19918;-80
2022/01/30 11:44:11;;;;;;;;;;;5.10;99.90;;;;;;4977806;28;20364;-80
2022/01/30 11:46:38;;;;;;;;;;;5.10;99.90;;;;;;4981826;28;19968;-80
2022/01/30 11:49:12;;;;;;;;;;;5.30;99.90;;;;;;4991042;28;19929;-80
2022/01/30 11:52:14;;;;;;;;;;;5.30;99.90;;;;;;5654612;23;19977;-81
2022/01/30 11:54:53;;;;;;;;;;;5.30;99.90;;;;;;4972182;28;19927;-81
2022/01/30 12:02:48;;;;;;;;;;;5.30;99.90;;;;;;5008893;23;19937;-96
2022/01/30 12:05:17;;;;;;;;;;;5.30;99.90;;;;;;4994453;28;19922;-95
2022/01/30 12:07:46;;;;;;;;;;;5.30;99.90;;;;;;5038043;23;19954;-96
2022/01/30 12:10:35;;;;;;;;;;;5.30;99.90;;;;;;4974844;28;19964;-96
2022/01/30 12:15:59;;;;;;;;;;;5.20;99.90;;;;;;5012165;28;19940;-82
2022/01/30 12:18:41;;;;;;;;;;;5.20;99.90;;;;;;5019018;28;19961;-81
2022/01/30 12:21:11;;;;;;;;;;;5.30;99.90;;;;;;5016560;28;19930;-82
2022/01/30 12:23:40;;;;;;;;;;;5.30;99.90;;;;;;5011823;28;19993;-81
2022/01/30 12:26:09;;;;;;;;;;;5.30;99.90;;;;;;5006425;28;19932;-81
2022/01/30 12:28:42;;;;;;;;;;;5.30;99.90;;;;;;5014016;28;20024;-81
2022/01/30 12:31:26;;;;;;;;;;;5.30;99.90;;;;;;5016875;28;20366;-81
2022/01/30 12:34:03;;;;;;;;;;;5.50;99.90;;;;;;5005395;28;20000;-81
2022/01/30 12:36:32;;;;;;;;;;;5.50;99.90;;;;;;5007694;28;19990;-81
2022/01/30 12:39:01;;;;;;;;;;;5.50;99.90;;;;;;5011804;28;19925;-81
2022/01/30 12:41:29;;;;;;;;;;;5.50;99.90;;;;;;5008416;28;19957;-82
2022/01/30 12:43:56;;;;;;;;;;;5.50;99.90;;;;;;5013565;28;20020;-81
2022/01/30 12:46:25;;;;;;;;;;;5.50;99.90;;;;;;5014180;28;19925;-81
2022/01/30 12:49:15;;;;;;;;;;;5.50;99.90;;;;;;5007323;28;19925;-82
2022/01/30 12:51:47;;;;;;;;;;;5.60;99.90;;;;;;4994975;28;19964;-81
2022/01/30 12:54:15;;;;;;;;;;;5.60;99.90;;;;;;5016363;28;19936;-81
2022/01/30 12:56:43;;;;;;;;;;;5.70;99.90;;;;;;5014643;28;19949;-81
2022/01/30 12:59:10;;;;;;;;;;;5.70;99.90;;;;;;5009888;28;19996;-81
2022/01/30 13:01:39;;;;;;;;;;;5.70;99.90;;;;;;5007842;28;19925;-81
2022/01/30 13:04:07;;;;;;;;;;;5.70;99.90;;;;;;5010130;28;19976;-81
2022/01/30 13:06:35;;;;;;;;;;;5.80;99.90;;;;;;5011284;28;19926;-81
2022/01/30 13:09:04;;;;;;;;;;;5.80;99.90;;;;;;5022896;28;19926;-81
2022/01/30 13:11:32;;;;;;;;;;;5.80;99.90;;;;;;5018795;28;19934;-81
2022/01/30 13:14:02;;;;;;;;;;;5.80;99.90;;;;;;5007138;28;19935;-81
2022/01/30 13:16:30;;;;;;;;;;;5.80;99.90;;;;;;5010867;28;19929;-81
2022/01/30 13:18:58;;;;;;;;;;;5.80;99.90;;;;;;5010997;28;19925;-81
2022/01/30 13:21:30;;;;;;;;;;;5.80;99.90;;;;;;5014280;28;19969;-81
2022/01/30 13:23:57;;;;;;;;;;;5.70;99.90;;;;;;5034405;23;19924;-82
2022/01/30 13:27:01;;;;;;;;;;;5.80;99.90;;;;;;4978991;28;19930;-81
2022/01/30 13:29:31;;;;;;;;;;;5.80;99.90;;;;;;4974653;28;19961;-81
2022/01/30 13:31:59;;;;;;;;;;;5.80;99.90;;;;;;4978843;28;19950;-81
2022/01/30 13:34:27;;;;;;;;;;;5.80;99.90;;;;;;4972720;28;19960;-81
2022/01/30 13:36:59;;;;;;;;;;;5.80;99.90;;;;;;4973493;28;19972;-81
2022/01/30 13:39:31;;;;;;;;;;;5.80;99.90;;;;;;4966917;28;19931;-81
2022/01/30 13:42:26;;;;;;;;;;;5.80;99.90;;;;;;4967887;28;19958;-81
2022/01/30 13:45:06;;;;;;;;;;;5.80;99.90;;;;;;4969381;28;19933;-80
2022/01/30 13:47:33;;;;;;;;;;;5.90;99.90;;;;;;4970762;28;20400;-81
2022/01/30 13:50:03;;;;;;;;;;;5.90;99.90;;;;;;4965680;28;19927;-81
2022/01/30 13:52:30;;;;;;;;;;;5.90;99.90;;;;;;4975418;28;20028;-81
2022/01/30 13:54:58;;;;;;;;;;;5.90;99.90;;;;;;4972695;28;19926;-81
2022/01/30 13:57:30;;;;;;;;;;;6.00;99.90;;;;;;4967008;28;19934;-81
2022/01/30 14:00:04;;;;;;;;;;;6.00;99.90;;;;;;4973887;28;19932;-81
2022/01/30 14:02:31;;;;;;;;;;;6.00;99.90;;;;;;4976101;28;19930;-81
2022/01/30 14:05:21;;;;;;;;;;;6.00;99.90;;;;;;4965783;28;20420;-81
2022/01/30 14:07:48;;;;;;;;;;;6.10;99.90;;;;;;4975271;28;19926;-81
2022/01/30 14:10:15;;;;;;;;;;;6.10;99.90;;;;;;4965572;28;19990;-81
2022/01/30 14:12:42;;;;;;;;;;;6.10;99.90;;;;;;4970578;28;19931;-81
2022/01/30 14:15:12;;;;;;;;;;;6.10;99.90;;;;;;4968045;28;19927;-81
2022/01/30 14:17:42;;;;;;;;;;;6.10;99.90;;;;;;4973360;28;20020;-81
2022/01/30 14:20:12;;;;;;;;;;;6.00;99.90;;;;;;4975882;28;19933;-81
2022/01/30 14:22:39;;;;;;;;;;;6.00;99.90;;;;;;4975152;28;19927;-81
2022/01/30 14:25:07;;;;;;;;;;;6.00;99.90;;;;;;4977522;28;19926;-81
2022/01/30 14:27:35;;;;;;;;;;;6.10;99.90;;;;;;4969018;28;19933;-81
2022/01/30 14:30:04;;;;;;;;;;;6.10;99.90;;;;;;4974752;28;20016;-81
2022/01/30 14:32:34;;;;;;;;;;;6.10;99.90;;;;;;4982434;28;19926;-82
2022/01/30 14:35:03;;;;;;;;;;;6.10;99.90;;;;;;4980039;28;19930;-81
2022/01/30 14:37:31;;;;;;;;;;;6.00;99.90;;;;;;4965262;28;20452;-81
2022/01/30 14:42:42;;;;;;;;;;;6.10;99.90;;;;;;4979029;28;19981;-81
2022/01/30 14:45:09;;;;;;;;;;;6.00;99.90;;;;;;4970773;28;20396;-81
2022/01/30 14:47:38;;;;;;;;;;;6.00;99.90;;;;;;4974428;28;20017;-82
2022/01/30 14:50:05;;;;;;;;;;;6.00;99.90;;;;;;4981225;28;19949;-81
2022/01/30 14:52:32;;;;;;;;;;;5.90;99.90;;;;;;4969178;28;19926;-81
2022/01/30 14:54:59;;;;;;;;;;;5.90;99.90;;;;;;4999693;28;19926;-81
2022/01/30 14:57:26;;;;;;;;;;;5.90;99.90;;;;;;4979093;28;19938;-81
2022/01/30 14:59:53;;;;;;;;;;;5.90;99.90;;;;;;4983236;28;19934;-81
2022/01/30 15:02:20;;;;;;;;;;;5.90;99.90;;;;;;4983217;28;19926;-81
2022/01/30 15:04:48;;;;;;;;;;;5.90;99.90;;;;;;4978164;28;20349;-81
2022/01/30 15:07:15;;;;;;;;;;;5.80;99.90;;;;;;4978113;28;19927;-82
2022/01/30 15:09:43;;;;;;;;;;;5.80;99.90;;;;;;4966904;28;20427;-81
2022/01/30 15:12:12;;;;;;;;;;;5.80;99.90;;;;;;4978018;28;20037;-81
2022/01/30 15:14:40;;;;;;;;;;;5.80;99.90;;;;;;4977541;28;19973;-81
2022/01/30 15:17:08;;;;;;;;;;;5.80;99.90;;;;;;4975661;28;19949;-81
2022/01/30 15:19:35;;;;;;;;;;;5.80;99.90;;;;;;4978482;28;19927;-81
2022/01/30 15:22:03;;;;;;;;;;;5.70;99.90;;;;;;4977799;28;20383;-81
2022/01/30 15:24:30;;;;;;;;;;;5.70;99.90;;;;;;4977821;28;20357;-81
2022/01/30 15:26:57;;;;;;;;;;;5.70;99.90;;;;;;4972559;28;19926;-81
2022/01/30 15:29:24;;;;;;;;;;;5.70;99.90;;;;;;4982368;28;19929;-81
2022/01/30 15:31:51;;;;;;;;;;;5.70;99.90;;;;;;4978237;28;19937;-81
2022/01/30 15:34:18;;;;;;;;;;;5.70;99.90;;;;;;4973667;28;20540;-81
2022/01/30 15:36:45;;;;;;;;;;;5.70;99.90;;;;;;4979249;28;19953;-82
2022/01/30 15:39:13;;;;;;;;;;;5.70;99.90;;;;;;4971180;28;19926;-80
2022/01/30 15:41:40;;;;;;;;;;;5.70;99.90;;;;;;4972963;28;19990;-81
2022/01/30 15:44:13;;;;;;;;;;;5.60;99.90;;;;;;4969623;28;19930;-81
2022/01/30 15:49:24;;;;;;;;;;;5.60;99.90;;;;;;4974075;28;19977;-81
2022/01/30 15:51:54;;;;;;;;;;;5.60;99.90;;;;;;4973134;28;19961;-81
2022/01/30 15:54:22;;;;;;;;;;;5.60;99.90;;;;;;4988977;28;20009;-81
2022/01/30 15:56:50;;;;;;;;;;;5.60;99.90;;;;;;4981617;28;19926;-81
2022/01/30 15:59:19;;;;;;;;;;;5.60;99.90;;;;;;4971669;28;19942;-82
2022/01/30 16:01:46;;;;;;;;;;;5.60;99.90;;;;;;4975938;28;19973;-81
2022/01/30 16:04:13;;;;;;;;;;;5.60;99.90;;;;;;4977914;28;20025;-80
2022/01/30 16:06:43;;;;;;;;;;;5.50;99.90;;;;;;4970158;28;19926;-81
2022/01/30 16:09:13;;;;;;;;;;;5.50;99.90;;;;;;4977049;28;19925;-81
2022/01/30 16:17:25;;;;;;;;;;;5.50;99.90;;;;;;4973865;28;19957;-81
2022/01/30 16:19:53;;;;;;;;;;;5.50;99.90;;;;;;4972870;28;19981;-81
2022/01/30 16:22:20;;;;;;;;;;;5.40;99.90;;;;;;4966292;28;19933;-80
2022/01/30 16:24:47;;;;;;;;;;;5.40;99.90;;;;;;4964146;28;19931;-81
2022/01/30 16:27:16;;;;;;;;;;;5.40;99.90;;;;;;4954402;28;19926;-81
2022/01/30 16:29:43;;;;;;;;;;;5.40;99.90;;;;;;4972553;28;19951;-82
2022/01/30 16:32:10;;;;;;;;;;;5.40;99.90;;;;;;4973636;28;19926;-81
2022/01/30 16:34:37;;;;;;;;;;;5.40;99.90;;;;;;4968533;28;19934;-81
2022/01/30 16:37:04;;;;;;;;;;;5.40;99.90;;;;;;4964071;28;19930;-81
2022/01/30 16:39:32;;;;;;;;;;;5.30;99.90;;;;;;4962997;28;19930;-81
2022/01/30 16:41:59;;;;;;;;;;;5.30;99.90;;;;;;4969816;28;19926;-82
2022/01/30 16:44:32;;;;;;;;;;;5.30;99.90;;;;;;4978466;28;19933;-81
2022/01/30 16:47:15;;;;;;;;;;;5.30;99.90;;;;;;4973752;28;19953;-81
2022/01/30 16:49:42;;;;;;;;;;;5.20;99.90;;;;;;4975699;28;20339;-82
2022/01/30 16:52:09;;;;;;;;;;;5.20;99.90;;;;;;4976062;28;20024;-81
2022/01/30 16:54:37;;;;;;;;;;;5.20;99.90;;;;;;4977105;28;19931;-82
2022/01/30 16:57:05;;;;;;;;;;;5.20;99.90;;;;;;4974044;28;19937;-82
2022/01/30 16:59:57;;;;;;;;;;;5.20;99.90;;;;;;4977760;28;19917;-82
2022/01/30 17:22:05;;;;;;;;;;;5.10;99.90;;;;;;5557975;23;19926;-80
2022/01/30 22:28:05;;;;;;;;;;;3.00;99.90;;;;;;4998088;23;20030;-95
2022/01/30 22:30:34;;;;;;;;;;;2.90;99.90;;;;;;4990788;28;19926;-94
2022/01/30 22:33:01;;;;;;;;;;;2.90;99.90;;;;;;4994346;28;19934;-95
2022/01/30 22:35:28;;;;;;;;;;;2.90;99.90;;;;;;4992313;28;19921;-95
2022/01/30 22:37:56;;;;;;;;;;;2.90;99.90;;;;;;5001967;28;19926;-95
2022/01/30 22:40:24;;;;;;;;;;;2.90;99.90;;;;;;4995916;28;19928;-95
2022/01/30 22:42:52;;;;;;;;;;;2.90;99.90;;;;;;4994353;28;19914;-95
2022/01/30 22:45:20;;;;;;;;;;;2.90;99.90;;;;;;4995238;28;19925;-96
2022/01/30 22:47:48;;;;;;;;;;;2.80;99.90;;;;;;4995676;28;19962;-95
2022/01/30 22:50:16;;;;;;;;;;;2.90;99.90;;;;;;4995424;28;19930;-95
2022/01/30 22:52:43;;;;;;;;;;;2.90;99.90;;;;;;4993568;28;19926;-95
2022/01/30 22:55:11;;;;;;;;;;;2.80;99.90;;;;;;4993776;28;19929;-95
2022/01/30 22:57:42;;;;;;;;;;;2.80;99.90;;;;;;4993272;28;19997;-95
2022/01/30 23:00:14;;;;;;;;;;;2.80;99.90;;;;;;4993667;28;19926;-95
2022/01/30 23:02:43;;;;;;;;;;;2.80;99.90;;;;;;4993714;28;19926;-95
2022/01/30 23:05:10;;;;;;;;;;;2.80;99.90;;;;;;5008857;28;19933;-95
2022/01/30 23:07:38;;;;;;;;;;;2.80;99.90;;;;;;4998580;28;19926;-95
2022/01/30 23:10:06;;;;;;;;;;;2.80;99.90;;;;;;4994759;28;19930;-95
2022/01/30 23:12:33;;;;;;;;;;;2.80;99.90;;;;;;4997025;28;20001;-95
2022/01/30 23:15:00;;;;;;;;;;;2.80;99.90;;;;;;4992225;28;19930;-95
2022/01/30 23:17:28;;;;;;;;;;;2.80;99.90;;;;;;4996374;28;19930;-96
2022/01/30 23:19:57;;;;;;;;;;;2.90;99.90;;;;;;4994354;28;19930;-95
2022/01/30 23:22:27;;;;;;;;;;;2.80;99.90;;;;;;4992974;28;19925;-95
2022/01/30 23:24:54;;;;;;;;;;;2.80;99.90;;;;;;4991897;28;19997;-95
2022/01/30 23:27:26;;;;;;;;;;;2.80;99.90;;;;;;4996543;28;19937;-94
2022/01/30 23:29:55;;;;;;;;;;;2.80;99.90;;;;;;4990873;28;19930;-95
2022/01/30 23:32:23;;;;;;;;;;;2.80;99.90;;;;;;4997158;28;19943;-95
2022/01/30 23:34:50;;;;;;;;;;;2.80;99.90;;;;;;4987660;28;19926;-94
2022/01/30 23:37:19;;;;;;;;;;;2.80;99.90;;;;;;4997058;28;19945;-95
2022/01/30 23:39:47;;;;;;;;;;;2.80;99.90;;;;;;4991081;28;19926;-94
2022/01/30 23:42:16;;;;;;;;;;;2.80;99.90;;;;;;4996761;28;19930;-95
2022/01/30 23:44:45;;;;;;;;;;;2.80;99.90;;;;;;4993710;28;19937;-95
2022/01/30 23:47:14;;;;;;;;;;;2.70;99.90;;;;;;4995192;28;19930;-94
2022/01/30 23:49:42;;;;;;;;;;;2.80;99.90;;;;;;4998793;28;20443;-94
2022/01/30 23:52:09;;;;;;;;;;;2.70;99.90;;;;;;5000024;28;20364;-94
2022/01/30 23:54:39;;;;;;;;;;;2.70;99.90;;;;;;4991422;28;19929;-95
2022/01/30 23:57:07;;;;;;;;;;;2.70;99.90;;;;;;5008936;28;19941;-94
2022/01/30 23:59:35;;;;;;;;;;;2.70;99.90;;;;;;4993456;28;19910;-94
